Time;durP1;ratioP1;P1;durP2;ratioP2;P2;SDS_P1;SDS_P2;PMS_P1;PMS_P2;Temp;Humidity;BMP_temperature;BMP_pressure;BME280_temperature;BME280_humidity;BME280_pressure;Samples;Min_cycle;Max_cycle;Signal;HPM_P1;HPM_P2
2021/05/27 00:00:25;;;;;;;12.48;5.00;;;10.10;99.90;;;;;;5079515;28;20056;-69
2021/05/27 00:02:51;;;;;;;9.82;5.15;;;10.10;99.90;;;;;;5067171;28;20064;-70
2021/05/27 00:05:17;;;;;;;9.65;5.22;;;10.10;99.90;;;;;;5084243;28;20044;-70
2021/05/27 00:07:43;;;;;;;10.32;4.70;;;10.10;99.90;;;;;;5073960;28;20127;-69
2021/05/27 00:10:11;;;;;;;11.38;5.07;;;10.10;99.90;;;;;;5086975;28;20044;-69
2021/05/27 00:12:37;;;;;;;12.60;5.63;;;10.10;99.90;;;;;;5086950;28;20044;-70
2021/05/27 00:15:05;;;;;;;12.25;5.80;;;10.10;99.90;;;;;;5087498;28;20051;-69
2021/05/27 00:17:31;;;;;;;14.77;5.45;;;10.10;99.90;;;;;;5073778;28;20060;-69
2021/05/27 00:19:57;;;;;;;11.95;5.82;;;10.10;99.90;;;;;;5086731;28;20044;-70
2021/05/27 00:22:23;;;;;;;12.80;6.15;;;10.10;99.90;;;;;;5087414;28;20492;-69
2021/05/27 00:24:49;;;;;;;12.57;6.10;;;10.00;99.90;;;;;;5087234;28;20070;-70
2021/05/27 00:27:15;;;;;;;11.32;5.38;;;10.00;99.90;;;;;;5086646;28;20048;-69
2021/05/27 00:29:41;;;;;;;13.77;5.40;;;10.00;99.90;;;;;;5086985;28;20044;-69
2021/05/27 00:32:09;;;;;;;14.55;5.65;;;10.00;99.90;;;;;;5086533;28;20094;-69
2021/05/27 00:34:35;;;;;;;12.98;6.25;;;10.00;99.90;;;;;;5087022;28;20071;-69
2021/05/27 00:37:01;;;;;;;10.82;5.75;;;10.10;99.90;;;;;;5068847;28;20452;-69
2021/05/27 00:39:27;;;;;;;12.75;5.38;;;10.10;99.90;;;;;;5086573;28;20506;-69
2021/05/27 00:41:53;;;;;;;9.98;4.60;;;10.00;99.90;;;;;;5085747;28;20120;-69
2021/05/27 00:44:21;;;;;;;7.70;4.97;;;10.10;99.90;;;;;;5086645;28;20040;-70
2021/05/27 00:46:47;;;;;;;13.73;5.82;;;10.20;99.90;;;;;;5087770;28;20447;-69
2021/05/27 00:49:13;;;;;;;14.15;5.90;;;10.10;99.90;;;;;;5086827;28;20051;-69
2021/05/27 00:51:39;;;;;;;11.90;5.57;;;10.10;99.90;;;;;;5086221;28;20074;-69
2021/05/27 00:54:05;;;;;;;14.40;6.13;;;10.00;99.90;;;;;;5086459;28;20044;-70
2021/05/27 00:56:31;;;;;;;12.35;5.40;;;10.00;99.90;;;;;;5068347;28;20123;-69
2021/05/27 00:58:57;;;;;;;13.98;6.07;;;10.00;99.90;;;;;;5086529;28;20094;-69
2021/05/27 01:01:24;;;;;;;11.23;5.53;;;10.00;99.90;;;;;;5068288;28;20036;-69
2021/05/27 01:03:49;;;;;;;13.73;6.43;;;10.00;99.90;;;;;;5082586;28;20048;-69
2021/05/27 01:06:15;;;;;;;11.00;5.70;;;10.00;99.90;;;;;;5086668;28;20045;-69
2021/05/27 01:08:41;;;;;;;10.18;6.05;;;10.00;99.90;;;;;;5085657;28;20039;-69
2021/05/27 01:11:07;;;;;;;11.07;5.57;;;10.00;99.90;;;;;;5079334;28;20048;-69
2021/05/27 01:13:33;;;;;;;14.82;5.80;;;10.00;99.90;;;;;;5067155;28;20118;-69
2021/05/27 01:15:59;;;;;;;14.13;5.70;;;10.00;99.90;;;;;;5086735;28;20056;-69
2021/05/27 01:18:27;;;;;;;12.88;5.93;;;10.00;99.90;;;;;;5087097;28;20044;-69
2021/05/27 01:20:57;;;;;;;11.35;5.50;;;10.00;99.90;;;;;;5086845;28;20052;-69
2021/05/27 01:23:26;;;;;;;12.70;6.15;;;10.00;99.90;;;;;;5085907;28;20048;-69
2021/05/27 01:25:55;;;;;;;13.07;5.72;;;10.10;99.90;;;;;;5072564;28;20055;-69
2021/05/27 01:28:21;;;;;;;9.73;4.78;;;10.00;99.90;;;;;;5085777;28;20492;-69
2021/05/27 01:30:49;;;;;;;12.35;5.57;;;10.00;99.90;;;;;;5072979;28;20515;-69
2021/05/27 01:33:18;;;;;;;14.00;6.70;;;10.00;99.90;;;;;;5084749;28;20036;-69
2021/05/27 01:35:44;;;;;;;11.48;5.50;;;10.00;99.90;;;;;;5072582;28;20040;-69
2021/05/27 01:38:12;;;;;;;15.27;6.35;;;10.00;99.90;;;;;;5086402;28;20036;-69
2021/05/27 01:40:38;;;;;;;10.20;6.00;;;10.00;99.90;;;;;;5073435;28;20045;-69
2021/05/27 01:43:04;;;;;;;10.52;5.88;;;10.00;99.90;;;;;;5085607;28;20097;-69
2021/05/27 01:45:30;;;;;;;12.95;6.60;;;10.00;99.90;;;;;;5085483;28;20123;-69
2021/05/27 01:47:56;;;;;;;13.02;5.60;;;10.00;99.90;;;;;;5085267;28;20501;-69
2021/05/27 01:50:22;;;;;;;14.82;6.25;;;10.00;99.90;;;;;;5085491;28;20041;-70
2021/05/27 01:52:49;;;;;;;12.65;6.40;;;10.00;99.90;;;;;;5085231;28;20041;-69
2021/05/27 01:55:15;;;;;;;12.93;6.68;;;10.00;99.90;;;;;;5085207;28;20131;-70
2021/05/27 01:57:41;;;;;;;13.90;5.90;;;10.00;99.90;;;;;;5085394;28;20055;-69
2021/05/27 02:00:08;;;;;;;13.23;6.97;;;10.00;99.90;;;;;;5073229;28;20037;-70
2021/05/27 02:02:33;;;;;;;13.85;6.15;;;10.00;99.90;;;;;;5084440;28;20119;-69
2021/05/27 02:04:59;;;;;;;13.90;6.43;;;10.00;99.90;;;;;;5084267;28;20045;-69
2021/05/27 02:07:27;;;;;;;13.23;7.43;;;10.10;99.90;;;;;;5085074;28;20040;-69
2021/05/27 02:09:53;;;;;;;12.73;6.32;;;10.10;99.90;;;;;;5085637;28;20044;-69
2021/05/27 02:12:19;;;;;;;11.88;6.75;;;10.10;99.90;;;;;;5085239;28;20040;-69
2021/05/27 02:14:45;;;;;;;12.27;6.45;;;10.10;99.90;;;;;;5085509;28;20056;-69
2021/05/27 02:17:11;;;;;;;15.50;6.43;;;10.00;99.90;;;;;;5084805;28;20578;-69
2021/05/27 02:19:37;;;;;;;13.60;6.50;;;10.00;99.90;;;;;;5084663;28;20074;-69
2021/05/27 02:22:03;;;;;;;15.32;6.30;;;10.00;99.90;;;;;;5084813;28;20048;-69
2021/05/27 02:24:29;;;;;;;13.77;7.32;;;10.00;99.90;;;;;;5085528;28;20519;-69
2021/05/27 02:26:55;;;;;;;11.65;6.72;;;10.00;99.90;;;;;;5085961;28;20041;-70
2021/05/27 02:29:21;;;;;;;13.15;6.10;;;10.00;99.90;;;;;;5085858;28;20120;-69
2021/05/27 02:31:47;;;;;;;12.57;5.60;;;10.10;99.90;;;;;;5085817;28;20047;-69
2021/05/27 02:34:12;;;;;;;11.93;5.55;;;10.00;99.90;;;;;;5084676;28;20484;-70
2021/05/27 02:36:38;;;;;;;9.40;5.32;;;10.00;99.90;;;;;;5084776;28;20451;-69
2021/05/27 02:39:05;;;;;;;8.60;5.53;;;10.10;99.90;;;;;;5084581;28;20508;-69
2021/05/27 02:41:31;;;;;;;13.10;5.50;;;10.10;99.90;;;;;;5084106;28;20267;-69
2021/05/27 02:43:57;;;;;;;11.13;5.25;;;10.20;99.90;;;;;;5084195;28;20158;-69
2021/05/27 02:46:23;;;;;;;12.57;6.15;;;10.20;99.90;;;;;;5070778;28;20041;-70
2021/05/27 02:48:49;;;;;;;14.13;5.80;;;10.20;99.90;;;;;;5085400;28;20483;-70
2021/05/27 02:51:15;;;;;;;11.85;5.43;;;10.10;99.90;;;;;;5084498;28;20063;-70
2021/05/27 02:53:40;;;;;;;10.90;5.35;;;10.10;99.90;;;;;;5072587;28;20055;-68
2021/05/27 02:56:06;;;;;;;12.93;5.82;;;10.10;99.90;;;;;;5083901;28;20060;-68
2021/05/27 02:58:32;;;;;;;11.63;6.13;;;10.10;99.90;;;;;;5085061;28;20086;-68
2021/05/27 03:00:58;;;;;;;9.52;5.15;;;10.10;99.90;;;;;;5080460;28;20049;-69
2021/05/27 03:03:24;;;;;;;12.13;5.25;;;10.10;99.90;;;;;;5074092;28;20044;-69
2021/05/27 03:05:50;;;;;;;9.93;5.90;;;10.10;99.90;;;;;;5084624;28;20083;-68
2021/05/27 03:08:16;;;;;;;11.82;5.05;;;10.10;99.90;;;;;;5085061;28;20060;-69
2021/05/27 03:10:43;;;;;;;11.20;4.82;;;10.10;99.90;;;;;;5084268;28;20044;-69
2021/05/27 03:13:09;;;;;;;15.27;5.65;;;10.10;99.90;;;;;;5084212;28;20127;-69
2021/05/27 03:15:36;;;;;;;10.18;5.00;;;10.20;99.90;;;;;;5084657;28;20071;-69
2021/05/27 03:18:03;;;;;;;11.13;4.93;;;10.20;99.90;;;;;;5084951;28;20044;-69
2021/05/27 03:20:29;;;;;;;10.20;5.38;;;10.10;99.90;;;;;;5084135;28;20040;-70
2021/05/27 03:22:55;;;;;;;11.73;5.00;;;10.20;99.90;;;;;;5084022;28;20097;-69
2021/05/27 03:25:22;;;;;;;8.10;3.90;;;10.20;99.90;;;;;;5084200;28;20104;-69
2021/05/27 03:27:48;;;;;;;9.52;4.57;;;10.20;99.90;;;;;;5084313;28;20040;-69
2021/05/27 03:30:15;;;;;;;10.18;4.03;;;10.20;99.90;;;;;;5063942;28;20049;-69
2021/05/27 03:32:41;;;;;;;10.98;4.47;;;10.10;99.90;;;;;;5073741;28;20036;-69
2021/05/27 03:35:08;;;;;;;8.77;4.60;;;10.20;99.90;;;;;;5084109;28;20415;-69
2021/05/27 03:37:34;;;;;;;10.40;4.57;;;10.10;99.90;;;;;;5083838;28;20049;-69
2021/05/27 03:40:13;;;;;;;11.02;3.97;;;10.10;99.90;;;;;;5084300;28;20050;-69
2021/05/27 03:42:50;;;;;;;8.75;4.35;;;10.10;99.90;;;;;;5084625;28;20100;-69
2021/05/27 03:45:27;;;;;;;9.40;3.92;;;10.00;99.90;;;;;;5066281;28;20048;-68
2021/05/27 03:47:54;;;;;;;8.15;3.92;;;10.00;99.90;;;;;;5083847;28;20063;-69
2021/05/27 03:50:26;;;;;;;8.23;3.92;;;10.00;99.90;;;;;;5084141;28;20051;-69
2021/05/27 03:52:52;;;;;;;8.13;3.58;;;10.00;99.90;;;;;;5084049;28;20048;-69
2021/05/27 03:55:21;;;;;;;8.32;3.55;;;10.10;99.90;;;;;;5086040;28;20048;-68
2021/05/27 03:57:49;;;;;;;9.15;3.67;;;10.10;99.90;;;;;;5083787;28;20049;-70
2021/05/27 04:03:04;;;;;;;9.10;4.00;;;10.00;99.90;;;;;;5074846;28;20056;-70
2021/05/27 04:08:16;;;;;;;7.38;3.25;;;10.00;99.90;;;;;;5088375;28;20037;-70
2021/05/27 04:10:43;;;;;;;7.10;3.00;;;10.10;99.90;;;;;;5070040;28;20053;-70
2021/05/27 04:13:09;;;;;;;8.05;3.22;;;10.00;99.90;;;;;;5087522;28;20519;-70
2021/05/27 04:15:37;;;;;;;5.50;2.92;;;10.00;99.90;;;;;;5086826;28;20044;-70
2021/05/27 04:18:06;;;;;;;6.18;3.00;;;10.10;99.90;;;;;;5069382;28;20048;-71
2021/05/27 04:20:37;;;;;;;6.30;2.85;;;10.00;99.90;;;;;;5087279;28;20048;-71
2021/05/27 04:23:05;;;;;;;5.15;3.28;;;10.00;99.90;;;;;;5087162;28;20516;-69
2021/05/27 04:25:31;;;;;;;7.68;3.38;;;10.00;99.90;;;;;;5086632;28;20052;-69
2021/05/27 04:27:59;;;;;;;6.45;3.30;;;10.10;99.90;;;;;;5069897;28;20052;-69
2021/05/27 04:30:27;;;;;;;8.63;3.08;;;10.10;99.90;;;;;;5088036;28;20072;-69
2021/05/27 04:33:06;;;;;;;6.38;2.47;;;10.10;99.90;;;;;;5087325;28;20041;-70
2021/05/27 04:35:37;;;;;;;9.60;3.50;;;10.10;99.90;;;;;;5041968;28;20394;-67
2021/05/27 04:38:08;;;;;;;5.13;2.70;;;10.00;99.90;;;;;;5085349;28;20504;-67
2021/05/27 04:40:36;;;;;;;8.40;3.25;;;10.10;99.90;;;;;;5085203;28;20052;-68
2021/05/27 04:43:03;;;;;;;5.18;2.55;;;10.10;99.90;;;;;;5037765;28;20045;-66
2021/05/27 04:45:29;;;;;;;8.07;3.78;;;10.00;99.90;;;;;;5076251;28;20045;-68
2021/05/27 04:47:55;;;;;;;5.70;2.70;;;10.00;99.90;;;;;;5066705;28;20345;-70
2021/05/27 04:50:23;;;;;;;5.95;2.90;;;10.00;99.90;;;;;;5066980;28;20053;-69
2021/05/27 04:52:50;;;;;;;5.10;3.17;;;10.00;99.90;;;;;;5063973;28;20050;-69
2021/05/27 04:55:18;;;;;;;5.88;3.00;;;10.10;99.90;;;;;;5060799;28;20037;-69
2021/05/27 04:57:44;;;;;;;7.38;2.83;;;10.00;99.90;;;;;;5068727;28;20047;-68
2021/05/27 05:00:13;;;;;;;5.68;3.00;;;10.00;99.90;;;;;;5079507;28;20044;-69
2021/05/27 05:02:40;;;;;;;6.68;2.78;;;10.00;99.90;;;;;;5068076;28;20072;-70
2021/05/27 05:05:08;;;;;;;4.88;2.80;;;10.10;99.90;;;;;;5075836;28;20163;-71
2021/05/27 05:07:34;;;;;;;6.28;2.97;;;10.00;99.90;;;;;;5067750;28;20036;-69
2021/05/27 05:10:02;;;;;;;7.32;3.30;;;10.00;99.90;;;;;;5061164;28;20042;-70
2021/05/27 05:12:28;;;;;;;6.60;3.33;;;10.00;99.90;;;;;;5080340;28;20056;-70
2021/05/27 05:14:54;;;;;;;5.38;2.90;;;10.00;99.90;;;;;;5050871;28;20052;-72
2021/05/27 05:17:20;;;;;;;6.78;2.90;;;10.00;99.90;;;;;;5077328;28;20076;-73
2021/05/27 05:19:46;;;;;;;5.70;3.20;;;10.00;99.90;;;;;;5066312;28;20060;-72
2021/05/27 05:22:12;;;;;;;7.45;3.55;;;10.00;99.90;;;;;;5075198;28;20049;-70
2021/05/27 05:24:38;;;;;;;5.68;3.05;;;10.00;99.90;;;;;;5064766;28;20210;-68
2021/05/27 05:27:05;;;;;;;7.82;3.45;;;10.10;99.90;;;;;;5077463;28;20095;-67
2021/05/27 05:29:31;;;;;;;6.22;3.33;;;10.00;99.90;;;;;;5065527;28;20049;-68
2021/05/27 05:31:56;;;;;;;5.60;3.35;;;10.00;99.90;;;;;;5076661;28;20044;-67
2021/05/27 05:34:22;;;;;;;8.23;3.90;;;10.10;99.90;;;;;;5050833;28;20045;-68
2021/05/27 05:36:48;;;;;;;8.52;3.47;;;10.00;99.90;;;;;;5075181;28;20050;-68
2021/05/27 05:39:14;;;;;;;7.50;3.80;;;10.00;99.90;;;;;;5066771;28;20079;-67
2021/05/27 05:41:41;;;;;;;9.95;3.95;;;9.90;99.90;;;;;;5075939;28;20037;-66
2021/05/27 05:44:07;;;;;;;8.07;4.07;;;9.90;99.90;;;;;;5066225;28;20055;-66
2021/05/27 05:46:33;;;;;;;7.50;3.70;;;10.00;99.90;;;;;;5075436;28;20364;-67
2021/05/27 05:48:58;;;;;;;6.03;3.13;;;10.10;99.90;;;;;;5065325;28;20174;-67
2021/05/27 05:51:24;;;;;;;6.28;3.08;;;10.10;99.90;;;;;;5076175;28;20098;-67
2021/05/27 05:53:50;;;;;;;8.48;3.85;;;10.10;99.90;;;;;;5065155;28;20148;-68
2021/05/27 05:56:16;;;;;;;7.65;3.35;;;10.10;99.90;;;;;;5040540;28;20052;-69
2021/05/27 05:58:42;;;;;;;5.82;3.38;;;10.10;99.90;;;;;;5066227;28;20048;-69
2021/05/27 06:01:08;;;;;;;4.35;3.22;;;10.10;99.90;;;;;;5075456;28;20064;-69
2021/05/27 06:03:34;;;;;;;7.25;3.35;;;10.10;99.90;;;;;;5067735;28;20048;-69
2021/05/27 06:06:00;;;;;;;6.18;3.38;;;10.10;99.90;;;;;;5064506;28;20044;-69
2021/05/27 06:08:26;;;;;;;6.35;3.40;;;10.10;99.90;;;;;;5065729;28;20053;-68
2021/05/27 06:10:52;;;;;;;10.20;3.90;;;10.10;99.90;;;;;;5066325;28;20110;-68
2021/05/27 06:13:18;;;;;;;7.35;3.95;;;10.10;99.90;;;;;;5067154;28;20139;-68
2021/05/27 06:15:44;;;;;;;8.20;3.88;;;10.10;99.90;;;;;;5077786;28;20037;-67
2021/05/27 06:18:10;;;;;;;7.90;4.00;;;10.10;99.90;;;;;;5064001;28;20040;-68
2021/05/27 06:20:37;;;;;;;8.50;4.20;;;10.20;99.90;;;;;;5075806;28;20044;-68
2021/05/27 06:23:03;;;;;;;9.18;4.20;;;10.10;99.90;;;;;;5062632;28;20040;-70
2021/05/27 06:25:30;;;;;;;8.75;3.85;;;10.10;99.90;;;;;;5075162;28;20484;-69
2021/05/27 06:27:56;;;;;;;7.38;4.10;;;10.10;99.90;;;;;;5062189;28;20717;-68
2021/05/27 06:30:23;;;;;;;9.68;4.15;;;10.10;99.90;;;;;;5071724;28;20333;-69
2021/05/27 06:32:49;;;;;;;8.07;4.63;;;10.10;99.90;;;;;;5062597;28;20066;-67
2021/05/27 06:35:16;;;;;;;9.18;4.38;;;10.20;99.90;;;;;;5054720;28;20083;-68
2021/05/27 06:37:42;;;;;;;10.80;4.57;;;10.10;99.90;;;;;;5069111;28;20412;-69
2021/05/27 06:40:21;;;;;;;10.38;4.45;;;10.10;99.90;;;;;;5060886;28;20140;-69
2021/05/27 06:42:47;;;;;;;11.82;5.90;;;10.10;99.90;;;;;;5065453;28;20049;-69
2021/05/27 06:45:15;;;;;;;13.48;5.68;;;10.20;99.90;;;;;;5064931;28;20060;-69
2021/05/27 06:47:41;;;;;;;12.23;5.45;;;10.20;99.90;;;;;;5075107;28;20051;-68
2021/05/27 06:50:07;;;;;;;11.75;5.03;;;10.20;99.90;;;;;;5065172;28;20048;-69
2021/05/27 06:52:33;;;;;;;11.52;5.07;;;10.10;99.90;;;;;;5057517;28;20040;-68
2021/05/27 06:54:59;;;;;;;13.85;6.35;;;10.20;99.90;;;;;;5048143;28;20048;-69
2021/05/27 06:57:25;;;;;;;12.88;5.40;;;10.20;99.90;;;;;;5069731;28;20048;-70
2021/05/27 06:59:51;;;;;;;11.77;5.50;;;10.20;99.90;;;;;;5057650;28;20048;-69
2021/05/27 07:02:19;;;;;;;10.82;5.63;;;10.20;99.90;;;;;;5071130;28;20277;-70
2021/05/27 07:04:46;;;;;;;12.52;5.35;;;10.20;99.90;;;;;;5049506;28;20448;-68
2021/05/27 07:07:12;;;;;;;11.23;5.47;;;10.20;99.90;;;;;;5074273;28;20056;-69
2021/05/27 07:09:41;;;;;;;15.65;6.15;;;10.20;99.90;;;;;;5050224;28;20059;-69
2021/05/27 07:12:07;;;;;;;12.90;5.35;;;10.20;99.90;;;;;;5073493;28;20052;-68
2021/05/27 07:14:33;;;;;;;18.52;6.10;;;10.20;99.90;;;;;;5066024;28;20059;-69
2021/05/27 07:17:01;;;;;;;10.52;5.45;;;10.10;99.90;;;;;;5074625;28;20051;-69
2021/05/27 07:19:27;;;;;;;11.85;5.93;;;10.10;99.90;;;;;;5064013;28;20119;-69
2021/05/27 07:21:53;;;;;;;13.68;5.70;;;10.20;99.90;;;;;;5054271;28;20053;-68
2021/05/27 07:24:19;;;;;;;11.02;5.68;;;10.20;99.90;;;;;;5057005;28;20053;-68
2021/05/27 07:26:45;;;;;;;10.25;5.72;;;10.20;99.90;;;;;;5053962;28;20284;-69
2021/05/27 07:29:12;;;;;;;12.48;5.63;;;10.20;99.90;;;;;;5055870;28;20396;-68
2021/05/27 07:31:38;;;;;;;9.15;5.18;;;10.40;99.90;;;;;;5078566;28;20494;-68
2021/05/27 07:34:05;;;;;;;10.15;5.20;;;10.40;99.90;;;;;;5034784;28;20053;-68
2021/05/27 07:36:32;;;;;;;10.70;4.97;;;10.40;99.90;;;;;;5076365;28;20053;-68
2021/05/27 07:38:57;;;;;;;9.75;5.15;;;10.40;99.90;;;;;;5069638;28;20059;-68
2021/05/27 07:41:23;;;;;;;9.25;4.35;;;10.50;99.90;;;;;;5078691;28;20275;-69
2021/05/27 07:43:50;;;;;;;6.07;3.80;;;10.50;99.90;;;;;;5059753;28;20136;-68
2021/05/27 07:46:16;;;;;;;10.75;4.45;;;10.60;99.90;;;;;;5078482;28;20359;-68
2021/05/27 07:48:43;;;;;;;7.82;4.25;;;10.70;99.90;;;;;;5069022;28;20044;-69
2021/05/27 07:51:09;;;;;;;9.52;4.43;;;10.80;99.90;;;;;;5070020;28;20554;-69
2021/05/27 07:53:34;;;;;;;7.38;4.05;;;10.70;99.90;;;;;;5070326;28;20053;-69
2021/05/27 07:56:00;;;;;;;7.60;4.30;;;10.80;99.90;;;;;;5077668;28;20052;-68
2021/05/27 07:58:26;;;;;;;7.70;3.95;;;10.80;99.90;;;;;;5066315;28;20032;-69
2021/05/27 08:00:52;;;;;;;10.38;4.25;;;10.90;99.90;;;;;;5078349;28;20090;-70
2021/05/27 08:03:18;;;;;;;7.35;3.75;;;10.90;99.90;;;;;;5069064;28;20072;-70
2021/05/27 08:05:43;;;;;;;6.85;4.00;;;11.10;99.90;;;;;;5078267;28;20036;-69
2021/05/27 08:08:09;;;;;;;8.02;4.30;;;11.20;99.90;;;;;;5066834;28;20045;-68
2021/05/27 08:10:35;;;;;;;6.78;3.53;;;11.40;99.90;;;;;;5051633;28;20059;-69
2021/05/27 08:13:01;;;;;;;7.78;3.28;;;11.60;99.90;;;;;;5061169;28;20036;-69
2021/05/27 08:15:27;;;;;;;6.47;3.72;;;11.70;99.90;;;;;;5049172;28;20049;-70
2021/05/27 08:17:53;;;;;;;4.78;2.95;;;11.80;99.90;;;;;;5070586;28;20123;-70
2021/05/27 08:20:19;;;;;;;5.45;2.72;;;11.90;99.90;;;;;;5051212;28;20075;-71
2021/05/27 08:22:45;;;;;;;6.47;2.92;;;11.90;99.90;;;;;;5066776;28;20059;-69
2021/05/27 08:25:12;;;;;;;5.32;3.20;;;11.90;99.90;;;;;;5049097;28;20144;-70
2021/05/27 08:27:38;;;;;;;4.57;2.90;;;12.00;99.90;;;;;;5080170;28;20044;-69
2021/05/27 08:30:05;;;;;;;5.63;2.72;;;12.00;99.90;;;;;;5067425;28;20056;-70
2021/05/27 08:32:31;;;;;;;3.33;2.45;;;12.00;99.90;;;;;;5078439;28;20044;-69
2021/05/27 08:34:58;;;;;;;4.20;2.70;;;12.00;99.90;;;;;;5047021;28;20272;-70
2021/05/27 08:37:23;;;;;;;2.63;2.08;;;12.00;99.90;;;;;;5077731;28;20074;-70
2021/05/27 08:39:49;;;;;;;3.55;2.28;;;12.00;99.90;;;;;;5067198;28;20044;-70
2021/05/27 08:42:16;;;;;;;3.05;2.20;;;12.10;99.90;;;;;;5069878;28;20049;-69
2021/05/27 08:44:42;;;;;;;5.93;2.30;;;12.10;99.90;;;;;;5063985;28;20056;-70
2021/05/27 08:47:09;;;;;;;6.05;2.20;;;12.10;99.90;;;;;;5072189;28;20040;-71
2021/05/27 08:49:37;;;;;;;4.80;2.28;;;12.20;99.90;;;;;;5067587;28;20052;-70
2021/05/27 08:52:04;;;;;;;4.18;2.25;;;12.30;99.90;;;;;;5077904;28;20045;-69
2021/05/27 08:54:31;;;;;;;3.78;2.00;;;12.30;99.90;;;;;;5067099;28;20060;-68
2021/05/27 08:57:01;;;;;;;3.42;1.90;;;12.40;99.90;;;;;;5045366;28;20037;-69
2021/05/27 08:59:27;;;;;;;4.57;1.92;;;12.50;99.90;;;;;;5068958;28;20115;-69
2021/05/27 09:02:00;;;;;;;4.43;1.70;;;12.70;99.90;;;;;;5079759;28;20052;-71
2021/05/27 09:04:26;;;;;;;4.55;2.40;;;12.70;99.90;;;;;;5067595;28;20053;-70
2021/05/27 09:06:52;;;;;;;7.18;2.30;;;12.80;99.90;;;;;;5074248;28;20052;-69
2021/05/27 09:09:18;;;;;;;7.25;2.42;;;12.90;99.90;;;;;;5066594;28;20136;-69
2021/05/27 09:11:46;;;;;;;9.80;2.63;;;13.00;99.90;;;;;;5077199;28;20033;-69
2021/05/27 09:14:12;;;;;;;6.05;2.55;;;13.00;99.90;;;;;;5069074;28;20511;-67
2021/05/27 09:16:55;;;;;;;5.80;2.50;;;13.10;99.90;;;;;;5078799;28;20066;-66
2021/05/27 09:19:21;;;;;;;9.63;2.55;;;13.10;99.90;;;;;;5066987;28;20090;-67
2021/05/27 09:21:47;;;;;;;8.65;3.15;;;13.10;99.90;;;;;;5055439;28;20338;-67
2021/05/27 09:24:12;;;;;;;8.32;2.67;;;13.00;99.90;;;;;;5060126;28;20304;-66
2021/05/27 09:26:54;;;;;;;7.68;2.38;;;13.00;99.90;;;;;;5077011;28;20559;-66
2021/05/27 09:29:22;;;;;;;8.48;2.45;;;13.10;99.90;;;;;;5049853;28;20053;-66
2021/05/27 09:32:07;;;;;;;8.57;2.78;;;13.00;99.90;;;;;;5073617;28;20045;-69
2021/05/27 09:34:43;;;;;;;7.95;2.20;;;13.00;99.90;;;;;;5048031;28;20052;-67
2021/05/27 09:37:19;;;;;;;10.30;3.05;;;13.00;99.90;;;;;;5060483;28;20051;-66
2021/05/27 09:39:47;;;;;;;7.60;2.47;;;13.00;99.90;;;;;;5065810;28;20086;-67
2021/05/27 09:42:13;;;;;;;9.00;2.83;;;13.00;99.90;;;;;;5048024;28;20083;-66
2021/05/27 09:44:39;;;;;;;10.18;2.90;;;12.90;99.90;;;;;;5050447;28;20067;-68
2021/05/27 09:47:04;;;;;;;12.85;3.03;;;12.90;99.90;;;;;;5074201;28;20240;-66
2021/05/27 09:49:33;;;;;;;7.20;2.20;;;12.90;99.90;;;;;;5065524;28;20082;-66
2021/05/27 09:52:16;;;;;;;12.85;2.47;;;12.90;99.90;;;;;;5078414;28;20045;-66
2021/05/27 09:54:55;;;;;;;12.60;3.25;;;12.90;99.90;;;;;;5066448;28;20063;-69
2021/05/27 09:57:28;;;;;;;9.98;2.97;;;13.00;99.90;;;;;;5068758;28;20076;-66
2021/05/27 09:59:55;;;;;;;7.78;2.58;;;13.00;99.90;;;;;;5063186;28;20130;-66
2021/05/27 10:02:22;;;;;;;11.07;2.33;;;12.90;99.90;;;;;;5072412;28;20274;-67
2021/05/27 10:04:54;;;;;;;11.52;2.38;;;12.90;99.90;;;;;;5055636;28;20116;-67
2021/05/27 10:07:39;;;;;;;9.15;2.13;;;12.90;99.90;;;;;;5071128;28;20041;-67
2021/05/27 10:10:07;;;;;;;14.35;3.00;;;13.00;99.90;;;;;;5049345;28;20080;-67
2021/05/27 10:12:51;;;;;;;10.32;3.13;;;13.00;99.90;;;;;;5071967;28;20044;-67
2021/05/27 10:15:19;;;;;;;10.93;2.50;;;13.10;99.90;;;;;;5041797;28;20061;-66
2021/05/27 10:17:49;;;;;;;11.15;2.90;;;13.10;99.90;;;;;;5075585;28;20090;-67
2021/05/27 10:20:18;;;;;;;10.52;2.92;;;13.20;99.90;;;;;;5068218;28;20052;-67
2021/05/27 10:22:44;;;;;;;8.27;2.55;;;13.20;99.90;;;;;;5077215;28;20233;-66
2021/05/27 10:25:12;;;;;;;11.10;2.80;;;13.20;99.90;;;;;;5066422;28;20178;-66
2021/05/27 10:27:40;;;;;;;9.63;2.70;;;13.10;99.90;;;;;;5073719;28;20796;-67
2021/05/27 10:30:08;;;;;;;17.23;2.72;;;13.10;99.90;;;;;;5054655;28;20106;-66
2021/05/27 10:32:45;;;;;;;10.23;3.17;;;13.00;99.90;;;;;;5073347;28;20662;-66
2021/05/27 10:35:12;;;;;;;11.60;2.67;;;12.90;99.90;;;;;;5064696;28;20056;-66
2021/05/27 10:37:38;;;;;;;13.45;3.47;;;12.80;99.90;;;;;;5074369;28;20047;-66
2021/05/27 10:40:30;;;;;;;9.18;3.08;;;12.80;99.90;;;;;;5067413;28;20076;-69
2021/05/27 10:43:04;;;;;;;9.25;3.25;;;13.00;99.90;;;;;;5070290;28;20044;-70
2021/05/27 10:45:33;;;;;;;11.48;2.83;;;13.10;99.90;;;;;;5064404;28;20056;-71
2021/05/27 10:48:11;;;;;;;20.27;3.80;;;13.20;99.90;;;;;;5075291;28;20048;-70
2021/05/27 10:51:05;;;;;;;9.40;3.33;;;13.30;99.90;;;;;;5065316;28;20350;-67
2021/05/27 10:53:37;;;;;;;9.75;3.15;;;13.40;99.90;;;;;;5077798;28;20044;-67
2021/05/27 10:56:08;;;;;;;7.75;2.35;;;13.40;99.90;;;;;;5048495;28;20053;-66
2021/05/27 10:58:49;;;;;;;10.65;2.88;;;13.60;99.90;;;;;;5077793;28;20131;-66
2021/05/27 11:01:31;;;;;;;6.95;2.50;;;13.40;99.90;;;;;;5043667;28;20071;-65
2021/05/27 11:03:59;;;;;;;8.32;2.85;;;13.40;99.90;;;;;;5065864;28;20061;-66
2021/05/27 11:06:30;;;;;;;9.93;3.75;;;13.40;99.90;;;;;;5079418;28;20048;-67
2021/05/27 11:09:10;;;;;;;12.88;3.03;;;13.40;99.90;;;;;;5057059;28;20058;-67
2021/05/27 11:11:43;;;;;;;8.55;3.15;;;13.60;99.90;;;;;;5078281;28;20051;-67
2021/05/27 11:14:41;;;;;;;8.90;2.17;;;13.60;99.90;;;;;;5068955;28;20036;-67
2021/05/27 11:17:08;;;;;;;6.25;1.80;;;13.50;99.90;;;;;;5062426;28;20439;-66
2021/05/27 11:22:36;;;;;;;4.20;1.63;;;13.20;99.90;;;;;;5069455;28;20041;-66
2021/05/27 11:25:08;;;;;;;5.10;1.92;;;13.10;99.90;;;;;;5059047;28;20049;-66
2021/05/27 11:27:42;;;;;;;6.55;2.17;;;13.10;99.90;;;;;;5068704;28;20087;-66
2021/05/27 11:30:20;;;;;;;6.88;2.72;;;13.10;99.90;;;;;;5048202;28;20556;-66
2021/05/27 11:33:06;;;;;;;7.85;2.30;;;13.20;99.90;;;;;;5071043;28;20270;-66
2021/05/27 11:35:37;;;;;;;8.55;2.35;;;13.30;99.90;;;;;;5042217;28;20056;-66
2021/05/27 11:38:05;;;;;;;7.60;2.92;;;13.30;99.90;;;;;;5078242;28;20058;-66
2021/05/27 11:40:37;;;;;;;7.82;2.35;;;13.20;99.90;;;;;;5048613;28;20551;-66
2021/05/27 11:43:03;;;;;;;6.03;2.05;;;13.20;99.90;;;;;;5078560;28;20032;-66
2021/05/27 11:45:40;;;;;;;7.47;1.90;;;13.10;99.90;;;;;;5067344;28;20064;-66
2021/05/27 11:50:42;;;;;;;7.90;2.20;;;13.20;99.90;;;;;;5069704;28;20044;-67
2021/05/27 11:53:09;;;;;;;6.43;2.13;;;13.30;99.90;;;;;;5073070;28;20045;-67
2021/05/27 11:55:35;;;;;;;9.27;2.30;;;13.30;99.90;;;;;;5050525;28;20056;-66
2021/05/27 11:58:02;;;;;;;10.25;2.92;;;13.40;99.90;;;;;;5072894;28;20044;-66
2021/05/27 12:00:28;;;;;;;10.23;3.05;;;13.50;99.90;;;;;;5062975;28;20332;-66
2021/05/27 12:02:55;;;;;;;9.73;2.67;;;13.50;99.90;;;;;;5065048;28;20277;-67
2021/05/27 12:05:29;;;;;;;12.15;3.15;;;13.50;99.90;;;;;;5070373;28;20052;-67
2021/05/27 12:08:03;;;;;;;6.40;2.38;;;13.30;99.90;;;;;;5074392;28;20036;-67
2021/05/27 12:10:30;;;;;;;7.03;2.38;;;13.30;99.90;;;;;;5068093;28;20056;-67
2021/05/27 12:12:57;;;;;;;10.10;2.33;;;13.20;99.90;;;;;;5078631;28;20061;-66
2021/05/27 12:15:24;;;;;;;7.10;2.50;;;13.20;99.90;;;;;;5050020;28;20061;-65
2021/05/27 12:17:52;;;;;;;6.05;2.50;;;13.20;99.90;;;;;;5078131;28;20044;-65
2021/05/27 12:20:31;;;;;;;9.85;2.78;;;13.20;99.90;;;;;;5070283;28;20105;-66
2021/05/27 12:23:06;;;;;;;8.55;2.58;;;13.30;99.90;;;;;;5079866;28;20056;-67
2021/05/27 12:25:43;;;;;;;14.30;3.33;;;13.40;99.90;;;;;;5068229;28;20117;-67
2021/05/27 12:28:17;;;;;;;8.40;2.78;;;13.70;99.90;;;;;;5077615;28;20036;-66
2021/05/27 12:30:53;;;;;;;8.88;2.85;;;13.90;99.90;;;;;;5067259;28;20048;-66
2021/05/27 12:33:22;;;;;;;9.05;2.25;;;14.20;99.90;;;;;;5078313;28;20068;-67
2021/05/27 12:35:48;;;;;;;6.88;2.58;;;14.50;99.90;;;;;;5041827;28;20045;-67
2021/05/27 12:38:20;;;;;;;12.40;2.95;;;14.90;99.90;;;;;;5071472;28;20040;-68
2021/05/27 12:40:50;;;;;;;7.35;2.47;;;14.90;99.90;;;;;;5067074;28;20053;-66
2021/05/27 12:43:34;;;;;;;6.60;2.03;;;15.00;99.90;;;;;;5077573;28;20112;-66
2021/05/27 12:46:01;;;;;;;9.43;2.20;;;15.10;99.90;;;;;;5051962;28;20041;-66
2021/05/27 12:48:31;;;;;;;10.93;2.65;;;15.00;99.90;;;;;;5073420;28;20097;-66
2021/05/27 12:51:06;;;;;;;7.85;2.20;;;15.00;99.90;;;;;;5069741;28;20114;-66
2021/05/27 12:53:39;;;;;;;9.18;2.40;;;14.80;99.90;;;;;;5073590;28;20051;-66
2021/05/27 12:56:12;;;;;;;8.18;2.30;;;14.70;99.90;;;;;;5045787;28;20734;-66
2021/05/27 12:58:40;;;;;;;6.78;1.88;;;14.50;99.90;;;;;;5070846;28;20044;-66